Time;durP1;ratioP1;P1;durP2;ratioP2;P2;SDS_P1;SDS_P2;PMS_P1;PMS_P2;Temp;Humidity;BMP_temperature;BMP_pressure;BME280_temperature;BME280_humidity;BME280_pressure;Samples;Min_cycle;Max_cycle;Signal;HPM_P1;HPM_P2
2023/03/05 00:01:57;;;;;;;;;;;16.80;62.00;;;;;;5040698;28;1339;-70
2023/03/05 00:04:23;;;;;;;;;;;16.80;62.00;;;;;;5072101;28;902;-70
2023/03/05 00:06:48;;;;;;;;;;;16.80;62.10;;;;;;5038592;28;1174;-71
2023/03/05 00:09:14;;;;;;;;;;;16.80;62.10;;;;;;5040240;28;1890;-71
2023/03/05 00:11:39;;;;;;;;;;;16.80;62.10;;;;;;5042094;28;1330;-70
2023/03/05 00:14:05;;;;;;;;;;;16.80;62.10;;;;;;5072026;28;780;-71
2023/03/05 00:16:30;;;;;;;;;;;16.70;62.10;;;;;;5060303;28;1077;-71
2023/03/05 00:18:56;;;;;;;;;;;16.70;62.10;;;;;;5066941;28;821;-71
2023/03/05 00:21:22;;;;;;;;;;;16.70;62.10;;;;;;5039732;28;1265;-71
2023/03/05 00:23:49;;;;;;;;;;;16.70;62.10;;;;;;5036644;28;919;-71
2023/03/05 00:26:15;;;;;;;;;;;16.70;62.10;;;;;;5042454;28;762;-71
2023/03/05 00:28:41;;;;;;;;;;;16.70;62.10;;;;;;5069935;28;1080;-70
2023/03/05 00:31:06;;;;;;;;;;;16.70;62.10;;;;;;5040318;28;1927;-70
2023/03/05 00:33:31;;;;;;;;;;;16.70;62.10;;;;;;5042267;28;812;-71
2023/03/05 00:36:00;;;;;;;;;;;16.70;62.10;;;;;;5040753;28;883;-70
2023/03/05 00:38:25;;;;;;;;;;;16.70;62.20;;;;;;5038323;28;1441;-70
2023/03/05 00:40:51;;;;;;;;;;;16.70;62.20;;;;;;5038893;28;875;-70
2023/03/05 00:43:16;;;;;;;;;;;16.70;62.20;;;;;;5038257;28;1326;-71
2023/03/05 00:45:42;;;;;;;;;;;16.70;62.20;;;;;;5040678;28;1015;-71
2023/03/05 00:48:08;;;;;;;;;;;16.70;62.20;;;;;;5039073;28;870;-71
2023/03/05 00:50:33;;;;;;;;;;;16.70;62.30;;;;;;5037398;28;1981;-71
2023/03/05 00:52:59;;;;;;;;;;;16.70;62.30;;;;;;5045007;28;1383;-70
2023/03/05 00:55:29;;;;;;;;;;;16.70;62.30;;;;;;5057315;28;776;-70
2023/03/05 00:57:54;;;;;;;;;;;16.70;62.50;;;;;;5060245;28;1179;-70
2023/03/05 01:00:20;;;;;;;;;;;16.70;62.30;;;;;;5039605;28;835;-70
2023/03/05 01:02:45;;;;;;;;;;;16.70;62.30;;;;;;5038127;28;1344;-70
2023/03/05 01:05:11;;;;;;;;;;;16.70;62.30;;;;;;5039399;28;848;-70
2023/03/05 01:07:36;;;;;;;;;;;16.70;62.30;;;;;;5070131;28;919;-70
2023/03/05 01:10:02;;;;;;;;;;;16.70;62.30;;;;;;5072206;28;1960;-70
2023/03/05 01:12:28;;;;;;;;;;;16.70;62.30;;;;;;5071365;28;1348;-70
2023/03/05 01:14:53;;;;;;;;;;;16.70;62.40;;;;;;5041016;28;1061;-70
2023/03/05 01:17:18;;;;;;;;;;;16.70;62.40;;;;;;5040325;28;848;-70
2023/03/05 01:19:44;;;;;;;;;;;16.70;62.40;;;;;;5037252;28;922;-71
2023/03/05 01:22:09;;;;;;;;;;;16.70;62.40;;;;;;5039665;28;1260;-70
2023/03/05 01:24:35;;;;;;;;;;;16.70;62.40;;;;;;5067689;28;820;-70
2023/03/05 01:27:00;;;;;;;;;;;16.70;62.40;;;;;;5037963;28;880;-70
2023/03/05 01:29:27;;;;;;;;;;;16.70;62.40;;;;;;5072959;28;1902;-70
2023/03/05 01:31:52;;;;;;;;;;;16.70;62.40;;;;;;5038695;28;1297;-70
2023/03/05 01:34:18;;;;;;;;;;;16.70;62.40;;;;;;5072240;28;856;-71
2023/03/05 01:36:43;;;;;;;;;;;16.70;62.50;;;;;;5071358;28;860;-70
2023/03/05 01:39:09;;;;;;;;;;;16.70;62.50;;;;;;5039152;28;899;-71
2023/03/05 01:41:34;;;;;;;;;;;16.70;62.50;;;;;;5071063;28;1263;-70
2023/03/05 01:43:59;;;;;;;;;;;16.60;62.50;;;;;;5036388;28;950;-70
2023/03/05 01:46:25;;;;;;;;;;;16.60;62.50;;;;;;5037814;28;772;-70
2023/03/05 01:48:55;;;;;;;;;;;16.60;62.50;;;;;;5036913;28;812;-70
2023/03/05 01:51:21;;;;;;;;;;;16.60;62.50;;;;;;5069829;28;1910;-71
2023/03/05 01:53:47;;;;;;;;;;;16.60;62.50;;;;;;5065835;28;1069;-71
2023/03/05 01:56:12;;;;;;;;;;;16.60;62.50;;;;;;5035192;28;809;-71
2023/03/05 01:58:38;;;;;;;;;;;16.60;62.50;;;;;;5076564;28;828;-71
2023/03/05 02:01:04;;;;;;;;;;;16.60;62.50;;;;;;5068636;28;1263;-71
2023/03/05 02:03:29;;;;;;;;;;;16.60;62.60;;;;;;5038281;28;1010;-71
2023/03/05 02:05:55;;;;;;;;;;;16.60;62.50;;;;;;5074783;28;808;-71
2023/03/05 02:08:20;;;;;;;;;;;16.60;62.50;;;;;;5069716;28;876;-71
2023/03/05 02:10:54;;;;;;;;;;;16.60;62.50;;;;;;5071986;28;1914;-71
2023/03/05 02:13:21;;;;;;;;;;;16.60;62.50;;;;;;5071748;28;1305;-71
2023/03/05 02:15:48;;;;;;;;;;;16.60;63.30;;;;;;5066084;28;827;-71
2023/03/05 02:18:14;;;;;;;;;;;16.60;62.50;;;;;;5071612;28;832;-71
2023/03/05 02:20:44;;;;;;;;;;;16.60;63.20;;;;;;5047458;28;1211;-71
2023/03/05 02:23:09;;;;;;;;;;;16.60;62.50;;;;;;5041872;28;1333;-71
2023/03/05 02:25:35;;;;;;;;;;;16.60;62.50;;;;;;5078174;28;871;-71
2023/03/05 02:28:02;;;;;;;;;;;16.60;62.50;;;;;;5041857;28;916;-71
2023/03/05 02:30:28;;;;;;;;;;;16.60;62.50;;;;;;5072200;28;1947;-70
2023/03/05 02:32:53;;;;;;;;;;;16.70;62.50;;;;;;5071712;28;1267;-70
2023/03/05 02:35:19;;;;;;;;;;;16.60;62.50;;;;;;5042609;28;1626;-71
2023/03/05 02:37:44;;;;;;;;;;;16.60;62.50;;;;;;5075598;28;792;-70
2023/03/05 02:40:10;;;;;;;;;;;16.60;62.50;;;;;;5073798;28;896;-71
2023/03/05 02:42:35;;;;;;;;;;;16.60;62.50;;;;;;5041398;28;1354;-71
2023/03/05 02:45:01;;;;;;;;;;;16.70;62.50;;;;;;5039091;28;980;-71
2023/03/05 02:47:26;;;;;;;;;;;16.60;62.40;;;;;;5076368;28;800;-70
2023/03/05 02:49:52;;;;;;;;;;;16.60;62.40;;;;;;5075106;28;1963;-70
2023/03/05 02:52:18;;;;;;;;;;;16.70;62.40;;;;;;5075050;28;1370;-70
2023/03/05 02:54:43;;;;;;;;;;;16.60;62.50;;;;;;5055812;28;1240;-69
2023/03/05 02:57:09;;;;;;;;;;;16.60;62.40;;;;;;5072708;28;809;-69
2023/03/05 02:59:34;;;;;;;;;;;16.60;62.40;;;;;;5041756;28;967;-70
2023/03/05 03:01:59;;;;;;;;;;;16.60;62.40;;;;;;5040918;28;1415;-69
2023/03/05 03:04:25;;;;;;;;;;;16.70;62.50;;;;;;5037517;28;1014;-69
2023/03/05 03:06:50;;;;;;;;;;;16.70;62.40;;;;;;5071450;28;1007;-71
2023/03/05 03:09:16;;;;;;;;;;;16.70;62.40;;;;;;5041564;28;936;-71
2023/03/05 03:11:41;;;;;;;;;;;16.70;62.40;;;;;;5039379;28;1910;-71
2023/03/05 03:14:07;;;;;;;;;;;16.70;62.30;;;;;;5040356;28;877;-71
2023/03/05 03:16:32;;;;;;;;;;;16.70;62.40;;;;;;5041775;28;884;-70
2023/03/05 03:18:58;;;;;;;;;;;16.70;62.30;;;;;;5039899;28;794;-70
2023/03/05 03:21:23;;;;;;;;;;;16.70;62.30;;;;;;5042476;28;1273;-71
2023/03/05 03:23:49;;;;;;;;;;;16.70;62.30;;;;;;5075386;28;835;-70
2023/03/05 03:26:15;;;;;;;;;;;16.70;62.30;;;;;;5042411;28;1393;-70
2023/03/05 03:28:40;;;;;;;;;;;16.70;62.30;;;;;;5040664;28;1549;-70
2023/03/05 03:31:06;;;;;;;;;;;16.70;62.30;;;;;;5039476;28;1964;-70
2023/03/05 03:33:31;;;;;;;;;;;16.70;62.30;;;;;;5045785;28;1011;-68
2023/03/05 03:35:57;;;;;;;;;;;16.70;62.30;;;;;;5043879;28;848;-69
2023/03/05 03:38:22;;;;;;;;;;;16.70;62.30;;;;;;5043730;28;1403;-69
2023/03/05 03:40:48;;;;;;;;;;;16.70;62.30;;;;;;5043890;28;947;-68
2023/03/05 03:43:13;;;;;;;;;;;16.70;62.30;;;;;;5041551;28;1329;-69
2023/03/05 03:45:39;;;;;;;;;;;16.70;62.30;;;;;;5040204;28;1253;-68
2023/03/05 03:48:05;;;;;;;;;;;16.70;62.30;;;;;;5073265;28;823;-68
2023/03/05 03:50:30;;;;;;;;;;;16.70;62.40;;;;;;5038126;28;1918;-70
2023/03/05 03:52:56;;;;;;;;;;;16.70;62.30;;;;;;5040416;28;1363;-70
2023/03/05 03:55:21;;;;;;;;;;;16.70;62.30;;;;;;5073056;28;1006;-69
2023/03/05 03:57:46;;;;;;;;;;;16.70;63.10;;;;;;5040878;28;1054;-70
2023/03/05 04:00:12;;;;;;;;;;;16.70;62.30;;;;;;5037402;28;894;-70
2023/03/05 04:02:38;;;;;;;;;;;16.70;62.30;;;;;;5039403;28;1248;-72
2023/03/05 04:05:04;;;;;;;;;;;16.70;62.30;;;;;;5039543;28;1318;-72
2023/03/05 04:07:29;;;;;;;;;;;16.70;62.30;;;;;;5041187;28;978;-72
2023/03/05 04:09:54;;;;;;;;;;;16.70;62.30;;;;;;5070105;28;1993;-72
2023/03/05 04:12:20;;;;;;;;;;;16.70;62.30;;;;;;5042289;28;1283;-71
2023/03/05 04:14:46;;;;;;;;;;;16.70;62.30;;;;;;5071972;28;859;-71
2023/03/05 04:17:11;;;;;;;;;;;16.70;62.30;;;;;;5037538;28;955;-70
2023/03/05 04:19:37;;;;;;;;;;;16.70;62.30;;;;;;5038889;28;852;-70
2023/03/05 04:22:02;;;;;;;;;;;16.70;62.30;;;;;;5040882;28;1265;-69
2023/03/05 04:24:28;;;;;;;;;;;16.70;62.30;;;;;;5038253;28;924;-69
2023/03/05 04:26:53;;;;;;;;;;;16.70;62.30;;;;;;5038698;28;1827;-69
2023/03/05 04:29:19;;;;;;;;;;;16.70;62.30;;;;;;5037277;28;776;-69
2023/03/05 04:31:44;;;;;;;;;;;16.70;62.30;;;;;;5039143;28;1957;-69
2023/03/05 04:34:10;;;;;;;;;;;16.70;62.30;;;;;;5040130;28;1013;-68
2023/03/05 04:36:35;;;;;;;;;;;16.70;63.10;;;;;;5040680;28;1249;-68
2023/03/05 04:39:01;;;;;;;;;;;16.70;62.30;;;;;;5038838;28;859;-68
2023/03/05 04:41:26;;;;;;;;;;;16.70;62.30;;;;;;5039575;28;1267;-68
2023/03/05 04:43:52;;;;;;;;;;;16.70;62.30;;;;;;5039356;28;1041;-69
2023/03/05 04:46:17;;;;;;;;;;;16.70;62.30;;;;;;5040718;28;1337;-69
2023/03/05 04:48:43;;;;;;;;;;;16.70;62.30;;;;;;5037157;28;943;-69
2023/03/05 04:51:08;;;;;;;;;;;16.70;62.30;;;;;;5039188;28;1985;-70
2023/03/05 04:53:34;;;;;;;;;;;16.70;62.30;;;;;;5037895;28;875;-70
2023/03/05 04:56:00;;;;;;;;;;;16.70;62.30;;;;;;5039635;28;848;-70
2023/03/05 04:58:25;;;;;;;;;;;16.70;62.30;;;;;;5038805;28;838;-70
2023/03/05 05:00:51;;;;;;;;;;;16.70;62.30;;;;;;5040400;28;1014;-70
2023/03/05 05:03:16;;;;;;;;;;;16.70;62.30;;;;;;5044979;28;1350;-70
2023/03/05 05:05:42;;;;;;;;;;;16.70;62.30;;;;;;5070372;28;1625;-69
2023/03/05 05:08:08;;;;;;;;;;;16.60;62.30;;;;;;5039405;28;1010;-70
2023/03/05 05:10:34;;;;;;;;;;;16.70;62.30;;;;;;5070186;28;1956;-70
2023/03/05 05:12:59;;;;;;;;;;;16.70;62.20;;;;;;5041359;28;1335;-70
2023/03/05 05:15:25;;;;;;;;;;;16.70;62.10;;;;;;5038338;28;935;-71
2023/03/05 05:17:51;;;;;;;;;;;16.70;62.10;;;;;;5037534;28;852;-70
2023/03/05 05:20:16;;;;;;;;;;;16.80;62.00;;;;;;5038607;28;883;-70
2023/03/05 05:22:42;;;;;;;;;;;16.80;62.60;;;;;;5038632;28;1290;-70
2023/03/05 05:25:09;;;;;;;;;;;16.80;61.70;;;;;;5070512;28;927;-70
2023/03/05 05:27:34;;;;;;;;;;;16.90;61.70;;;;;;5037388;28;838;-70
2023/03/05 05:30:00;;;;;;;;;;;16.90;61.50;;;;;;5039662;28;1960;-70
2023/03/05 05:32:25;;;;;;;;;;;17.00;61.40;;;;;;5038139;28;1261;-70
2023/03/05 05:34:54;;;;;;;;;;;17.00;61.30;;;;;;5041022;28;840;-69
2023/03/05 05:37:23;;;;;;;;;;;17.00;61.10;;;;;;5073787;28;1409;-70
2023/03/05 05:39:49;;;;;;;;;;;17.00;61.10;;;;;;5069229;28;831;-70
2023/03/05 05:42:16;;;;;;;;;;;17.10;61.00;;;;;;5040371;28;1272;-71
2023/03/05 05:44:41;;;;;;;;;;;17.10;60.90;;;;;;5040873;28;801;-71
2023/03/05 05:47:06;;;;;;;;;;;17.10;60.80;;;;;;5041918;28;1065;-70
2023/03/05 05:49:32;;;;;;;;;;;17.10;60.70;;;;;;5042271;28;1905;-71
2023/03/05 05:51:58;;;;;;;;;;;17.20;60.70;;;;;;5037720;28;1259;-71
2023/03/05 05:54:23;;;;;;;;;;;17.20;60.70;;;;;;5041692;28;812;-71
2023/03/05 05:56:49;;;;;;;;;;;17.20;60.60;;;;;;5045232;28;857;-71
2023/03/05 05:59:14;;;;;;;;;;;17.20;60.50;;;;;;5039859;28;832;-71
2023/03/05 06:01:40;;;;;;;;;;;17.20;60.50;;;;;;5045460;28;1271;-71
2023/03/05 06:04:05;;;;;;;;;;;17.20;61.20;;;;;;5041271;28;903;-71
2023/03/05 06:06:32;;;;;;;;;;;17.20;60.40;;;;;;5046442;28;879;-71
2023/03/05 06:08:57;;;;;;;;;;;17.20;60.30;;;;;;5043424;28;1749;-69
2023/03/05 06:11:23;;;;;;;;;;;17.20;60.30;;;;;;5071858;28;1967;-69
2023/03/05 06:13:48;;;;;;;;;;;17.20;60.30;;;;;;5044606;28;1622;-70
2023/03/05 06:16:15;;;;;;;;;;;17.20;60.30;;;;;;5077010;28;1390;-69
2023/03/05 06:18:40;;;;;;;;;;;17.20;60.30;;;;;;5073920;28;876;-70
2023/03/05 06:21:07;;;;;;;;;;;17.20;60.20;;;;;;5043485;28;1217;-70
2023/03/05 06:23:32;;;;;;;;;;;17.30;60.30;;;;;;5074723;28;927;-70
2023/03/05 06:25:58;;;;;;;;;;;17.30;60.30;;;;;;5073043;28;848;-70
2023/03/05 06:28:24;;;;;;;;;;;17.30;60.30;;;;;;5074022;28;861;-70
2023/03/05 06:30:49;;;;;;;;;;;17.30;60.30;;;;;;5076043;28;1969;-69
2023/03/05 06:33:15;;;;;;;;;;;17.30;60.30;;;;;;5043768;28;1215;-69
2023/03/05 06:35:40;;;;;;;;;;;17.30;60.20;;;;;;5039137;28;3992;-67
2023/03/05 06:38:06;;;;;;;;;;;17.30;60.20;;;;;;5077430;28;1075;-68
2023/03/05 06:40:32;;;;;;;;;;;17.30;60.20;;;;;;5074991;28;983;-68
2023/03/05 06:42:57;;;;;;;;;;;17.30;60.20;;;;;;5072949;28;1279;-68
2023/03/05 06:45:23;;;;;;;;;;;17.30;60.20;;;;;;5039360;28;944;-70
2023/03/05 06:47:48;;;;;;;;;;;17.30;60.20;;;;;;5040826;28;840;-69
2023/03/05 06:50:13;;;;;;;;;;;17.30;60.30;;;;;;5039866;28;1965;-68
2023/03/05 06:52:39;;;;;;;;;;;17.30;60.30;;;;;;5038777;28;1223;-67
2023/03/05 06:55:05;;;;;;;;;;;17.20;60.30;;;;;;5045182;28;844;-67
2023/03/05 06:57:31;;;;;;;;;;;17.20;60.30;;;;;;5078493;28;836;-67
2023/03/05 06:59:56;;;;;;;;;;;17.20;60.30;;;;;;5041874;28;1271;-67
2023/03/05 07:02:22;;;;;;;;;;;17.20;60.30;;;;;;5039834;28;1286;-68
2023/03/05 07:04:47;;;;;;;;;;;17.20;60.30;;;;;;5040885;28;914;-71
2023/03/05 07:07:13;;;;;;;;;;;17.20;60.40;;;;;;5040853;28;966;-70
2023/03/05 07:09:41;;;;;;;;;;;17.20;60.50;;;;;;5074087;28;1914;-69
2023/03/05 07:12:09;;;;;;;;;;;17.20;61.30;;;;;;5041050;28;1425;-68
2023/03/05 07:14:34;;;;;;;;;;;17.20;60.50;;;;;;5040842;28;857;-68
2023/03/05 07:16:59;;;;;;;;;;;17.20;60.50;;;;;;5040536;28;883;-68
2023/03/05 07:19:25;;;;;;;;;;;17.20;60.50;;;;;;5040164;28;888;-69
2023/03/05 07:21:50;;;;;;;;;;;17.20;60.50;;;;;;5042518;28;1256;-69
2023/03/05 07:24:16;;;;;;;;;;;17.20;60.60;;;;;;5042848;28;863;-69
2023/03/05 07:26:41;;;;;;;;;;;17.20;60.60;;;;;;5038206;28;924;-70
2023/03/05 07:29:07;;;;;;;;;;;17.20;60.70;;;;;;5039439;28;854;-70
2023/03/05 07:31:32;;;;;;;;;;;17.20;60.70;;;;;;5040981;28;1956;-68
2023/03/05 07:33:58;;;;;;;;;;;17.10;60.70;;;;;;5044194;28;947;-68
2023/03/05 07:36:24;;;;;;;;;;;17.10;60.70;;;;;;5073342;28;811;-70
2023/03/05 07:38:49;;;;;;;;;;;17.10;60.70;;;;;;5040466;28;1535;-69
2023/03/05 07:41:18;;;;;;;;;;;17.10;60.80;;;;;;5073063;28;1279;-70
2023/03/05 07:43:44;;;;;;;;;;;17.10;60.80;;;;;;5070808;28;898;-69
2023/03/05 07:46:10;;;;;;;;;;;17.10;60.90;;;;;;5078060;28;1335;-69
2023/03/05 07:48:36;;;;;;;;;;;17.10;60.80;;;;;;5044253;28;817;-69
2023/03/05 07:51:02;;;;;;;;;;;17.10;60.90;;;;;;5041703;28;1894;-70
2023/03/05 07:53:27;;;;;;;;;;;17.10;60.90;;;;;;5070692;28;1389;-70
2023/03/05 07:55:53;;;;;;;;;;;17.10;60.90;;;;;;5039462;28;851;-69
2023/03/05 07:58:18;;;;;;;;;;;17.10;61.00;;;;;;5039065;28;982;-68
2023/03/05 08:00:43;;;;;;;;;;;17.10;60.90;;;;;;5041348;28;2176;-68
2023/03/05 08:03:09;;;;;;;;;;;17.10;61.00;;;;;;5037860;28;1366;-68
2023/03/05 08:05:37;;;;;;;;;;;17.10;61.00;;;;;;5042726;28;1455;-70
2023/03/05 08:08:03;;;;;;;;;;;17.10;61.00;;;;;;5078526;28;1412;-69
2023/03/05 08:10:28;;;;;;;;;;;17.00;60.90;;;;;;5041210;28;1898;-70
2023/03/05 08:12:54;;;;;;;;;;;17.10;61.00;;;;;;5042159;28;1375;-69
2023/03/05 08:15:19;;;;;;;;;;;17.10;61.00;;;;;;5040374;28;875;-68
2023/03/05 08:17:45;;;;;;;;;;;17.10;61.00;;;;;;5040110;28;863;-68
2023/03/05 08:20:11;;;;;;;;;;;17.10;61.00;;;;;;5037541;28;828;-69
2023/03/05 08:22:36;;;;;;;;;;;17.10;61.00;;;;;;5041244;28;1325;-68
2023/03/05 08:25:02;;;;;;;;;;;17.10;60.90;;;;;;5040719;28;1401;-69
2023/03/05 08:27:28;;;;;;;;;;;17.10;60.80;;;;;;5072785;28;1523;-69
2023/03/05 08:29:53;;;;;;;;;;;17.10;60.80;;;;;;5044142;28;1965;-69
2023/03/05 08:32:19;;;;;;;;;;;17.10;60.70;;;;;;5039891;28;1531;-70
2023/03/05 08:34:44;;;;;;;;;;;17.10;60.70;;;;;;5041594;28;1320;-69
2023/03/05 08:37:10;;;;;;;;;;;17.20;60.70;;;;;;5034734;28;1704;-69
2023/03/05 08:39:35;;;;;;;;;;;17.20;60.60;;;;;;5043746;28;1299;-69
2023/03/05 08:42:01;;;;;;;;;;;17.20;60.50;;;;;;5068702;28;1287;-69
2023/03/05 08:44:26;;;;;;;;;;;17.20;60.50;;;;;;5039580;28;809;-69
2023/03/05 08:46:52;;;;;;;;;;;17.20;61.20;;;;;;5073176;28;882;-69
2023/03/05 08:49:17;;;;;;;;;;;17.20;60.40;;;;;;5069970;28;903;-69
2023/03/05 08:51:43;;;;;;;;;;;17.20;60.40;;;;;;5041455;28;1969;-69
2023/03/05 08:54:08;;;;;;;;;;;17.20;60.40;;;;;;5040950;28;805;-69
2023/03/05 08:56:34;;;;;;;;;;;17.30;60.40;;;;;;5040269;28;893;-69
2023/03/05 08:58:59;;;;;;;;;;;17.30;60.30;;;;;;5039706;28;864;-69
2023/03/05 09:01:25;;;;;;;;;;;17.30;60.30;;;;;;5036919;28;1369;-69
2023/03/05 09:03:50;;;;;;;;;;;17.30;60.20;;;;;;5039010;28;812;-69
2023/03/05 09:06:16;;;;;;;;;;;17.30;60.20;;;;;;5041809;28;918;-69
2023/03/05 09:08:41;;;;;;;;;;;17.30;60.20;;;;;;5073508;28;970;-69
2023/03/05 09:11:07;;;;;;;;;;;17.30;60.10;;;;;;5038106;28;1906;-69
2023/03/05 09:13:32;;;;;;;;;;;17.30;60.10;;;;;;5070710;28;990;-69
2023/03/05 09:15:59;;;;;;;;;;;17.30;60.10;;;;;;5072116;28;1030;-69
2023/03/05 09:18:24;;;;;;;;;;;17.30;60.00;;;;;;5070334;28;1405;-69
2023/03/05 09:20:50;;;;;;;;;;;17.30;60.00;;;;;;5040843;28;1718;-71
2023/03/05 09:23:15;;;;;;;;;;;17.40;60.10;;;;;;5040723;28;1311;-70
2023/03/05 09:25:41;;;;;;;;;;;17.40;60.00;;;;;;5043549;28;1331;-68
2023/03/05 09:28:06;;;;;;;;;;;17.40;60.00;;;;;;5037416;28;1389;-69
2023/03/05 09:30:33;;;;;;;;;;;17.40;60.00;;;;;;5039328;28;1969;-69
2023/03/05 09:32:59;;;;;;;;;;;17.40;60.00;;;;;;5042277;28;1542;-69
2023/03/05 09:35:25;;;;;;;;;;;17.40;60.00;;;;;;5039627;28;1033;-68
2023/03/05 09:37:51;;;;;;;;;;;17.40;60.00;;;;;;5069708;28;1311;-70
2023/03/05 09:40:17;;;;;;;;;;;17.40;60.00;;;;;;5071752;28;1168;-68
2023/03/05 09:43:01;;;;;;;;;;;17.30;59.90;;;;;;5072048;28;1385;-67
2023/03/05 09:45:27;;;;;;;;;;;17.40;60.00;;;;;;5042709;28;1315;-69
2023/03/05 09:48:04;;;;;;;;;;;17.40;60.00;;;;;;5042001;28;1328;-68
2023/03/05 09:50:37;;;;;;;;;;;17.40;60.00;;;;;;5040145;28;1988;-70
2023/03/05 09:53:03;;;;;;;;;;;17.40;60.00;;;;;;5071184;28;1349;-69
2023/03/05 09:55:31;;;;;;;;;;;17.40;60.00;;;;;;5039996;28;1377;-69
2023/03/05 09:57:58;;;;;;;;;;;17.30;59.90;;;;;;5074418;28;1583;-70
2023/03/05 10:00:33;;;;;;;;;;;17.40;60.00;;;;;;5071105;28;895;-69
2023/03/05 10:02:59;;;;;;;;;;;17.40;60.10;;;;;;5072384;28;1260;-69
2023/03/05 10:05:27;;;;;;;;;;;17.30;60.00;;;;;;5071493;28;819;-69
2023/03/05 10:07:54;;;;;;;;;;;17.30;60.10;;;;;;5068156;28;982;-69
2023/03/05 10:10:23;;;;;;;;;;;17.30;60.20;;;;;;5071367;28;1964;-69
2023/03/05 10:12:55;;;;;;;;;;;17.30;60.10;;;;;;5071805;28;1270;-69
2023/03/05 10:15:36;;;;;;;;;;;17.30;60.20;;;;;;5068314;28;812;-69
2023/03/05 10:18:20;;;;;;;;;;;17.30;60.20;;;;;;5071038;28;834;-70
2023/03/05 10:20:56;;;;;;;;;;;17.30;60.20;;;;;;5035572;28;1744;-70
2023/03/05 10:23:24;;;;;;;;;;;17.30;60.30;;;;;;5068987;28;1297;-69
2023/03/05 10:26:22;;;;;;;;;;;17.30;60.30;;;;;;5069177;28;832;-69
2023/03/05 10:28:53;;;;;;;;;;;17.30;60.30;;;;;;5026076;28;1309;-70
2023/03/05 10:31:28;;;;;;;;;;;17.20;60.40;;;;;;5068542;28;1961;-70
2023/03/05 10:34:09;;;;;;;;;;;17.30;60.50;;;;;;5037702;28;903;-69
2023/03/05 10:36:44;;;;;;;;;;;17.20;60.40;;;;;;5035836;28;1376;-69
2023/03/05 10:39:10;;;;;;;;;;;17.20;60.40;;;;;;5038508;28;828;-70
2023/03/05 10:41:51;;;;;;;;;;;17.20;60.50;;;;;;5040538;28;1359;-69
2023/03/05 10:44:24;;;;;;;;;;;17.20;61.30;;;;;;5074450;28;1287;-69
2023/03/05 10:46:50;;;;;;;;;;;17.20;60.50;;;;;;5070711;28;1381;-69
2023/03/05 10:49:15;;;;;;;;;;;17.20;60.60;;;;;;5071646;28;1533;-69
2023/03/05 10:51:51;;;;;;;;;;;17.20;60.70;;;;;;5044110;28;1889;-70
2023/03/05 10:54:29;;;;;;;;;;;17.20;60.70;;;;;;5072811;28;1199;-70
2023/03/05 10:57:13;;;;;;;;;;;17.20;60.70;;;;;;5044673;28;1210;-69
2023/03/05 10:59:40;;;;;;;;;;;17.20;60.70;;;;;;5044840;28;1577;-69
2023/03/05 11:02:07;;;;;;;;;;;17.20;60.80;;;;;;5073355;28;1348;-70
2023/03/05 11:04:37;;;;;;;;;;;17.10;60.70;;;;;;5071811;28;1451;-70
2023/03/05 11:07:06;;;;;;;;;;;17.10;60.70;;;;;;5073461;28;1449;-69
2023/03/05 11:09:32;;;;;;;;;;;17.10;60.80;;;;;;5043146;28;1450;-68
2023/03/05 11:12:13;;;;;;;;;;;17.10;60.80;;;;;;5043030;28;1910;-67
2023/03/05 11:14:43;;;;;;;;;;;17.10;60.80;;;;;;5042657;28;1425;-68
2023/03/05 11:17:26;;;;;;;;;;;17.10;60.80;;;;;;5074847;28;1357;-69
2023/03/05 11:19:52;;;;;;;;;;;17.10;60.90;;;;;;5072642;28;1442;-70
2023/03/05 11:22:19;;;;;;;;;;;17.10;60.90;;;;;;5040536;28;1330;-69
2023/03/05 11:25:01;;;;;;;;;;;17.10;61.00;;;;;;5042192;28;840;-69
2023/03/05 11:27:30;;;;;;;;;;;17.10;60.90;;;;;;5040879;28;919;-70
2023/03/05 11:29:56;;;;;;;;;;;17.10;61.00;;;;;;5073553;28;1894;-69
2023/03/05 11:32:22;;;;;;;;;;;17.10;61.00;;;;;;5073203;28;1343;-69
2023/03/05 11:34:48;;;;;;;;;;;17.10;61.00;;;;;;5039419;28;843;-69
2023/03/05 11:37:25;;;;;;;;;;;17.10;61.00;;;;;;5043765;28;1290;-70
2023/03/05 11:40:09;;;;;;;;;;;17.00;61.00;;;;;;5040860;28;1341;-67
2023/03/05 11:42:35;;;;;;;;;;;17.10;61.10;;;;;;5069689;28;2138;-67
2023/03/05 11:45:00;;;;;;;;;;;17.10;61.10;;;;;;5075074;28;1360;-67
2023/03/05 11:47:41;;;;;;;;;;;17.10;61.10;;;;;;5057818;28;1427;-67
2023/03/05 11:50:26;;;;;;;;;;;17.00;61.00;;;;;;5041296;28;1902;-67
2023/03/05 11:53:08;;;;;;;;;;;17.10;61.10;;;;;;5071124;28;1345;-70
2023/03/05 11:56:12;;;;;;;;;;;17.00;61.00;;;;;;5073803;28;1321;-70
2023/03/05 11:58:39;;;;;;;;;;;17.10;61.00;;;;;;5008409;28;1339;-70
2023/03/05 12:01:05;;;;;;;;;;;17.10;61.00;;;;;;4989740;28;963;-69
2023/03/05 12:03:34;;;;;;;;;;;17.10;60.90;;;;;;5016440;28;1362;-70
2023/03/05 12:06:03;;;;;;;;;;;17.10;60.90;;;;;;5067746;28;812;-70
2023/03/05 12:08:30;;;;;;;;;;;17.10;60.80;;;;;;5073390;28;1269;-69
2023/03/05 12:10:56;;;;;;;;;;;17.10;60.80;;;;;;5043436;28;1966;-70
2023/03/05 12:13:28;;;;;;;;;;;17.10;60.80;;;;;;5035302;28;1217;-70
2023/03/05 12:15:57;;;;;;;;;;;17.10;60.80;;;;;;5081288;28;906;-69
2023/03/05 12:18:22;;;;;;;;;;;17.20;60.70;;;;;;5044357;28;916;-70
2023/03/05 12:20:52;;;;;;;;;;;17.20;60.70;;;;;;5042353;28;884;-69
2023/03/05 12:23:18;;;;;;;;;;;17.20;60.70;;;;;;5072188;28;1329;-69
2023/03/05 12:25:45;;;;;;;;;;;17.20;60.70;;;;;;5060220;28;1524;-69
2023/03/05 12:28:33;;;;;;;;;;;17.20;60.60;;;;;;5033962;28;904;-70
2023/03/05 12:31:02;;;;;;;;;;;17.20;60.60;;;;;;5039649;28;1977;-70
2023/03/05 12:33:28;;;;;;;;;;;17.20;60.50;;;;;;5070015;28;1636;-69
2023/03/05 12:35:53;;;;;;;;;;;17.20;60.50;;;;;;5046496;28;1857;-68
2023/03/05 12:38:31;;;;;;;;;;;17.20;60.50;;;;;;5042731;28;1228;-68
2023/03/05 12:41:29;;;;;;;;;;;17.20;60.50;;;;;;5071338;28;877;-68
2023/03/05 12:44:03;;;;;;;;;;;17.20;60.40;;;;;;5021120;28;1459;-69
2023/03/05 12:46:31;;;;;;;;;;;17.20;60.40;;;;;;5046157;28;985;-69
2023/03/05 12:48:57;;;;;;;;;;;17.20;60.40;;;;;;5071447;28;880;-69
2023/03/05 12:51:27;;;;;;;;;;;17.20;60.40;;;;;;5072645;28;1902;-68
2023/03/05 12:53:53;;;;;;;;;;;17.20;60.30;;;;;;5072955;28;824;-68
2023/03/05 12:56:19;;;;;;;;;;;17.20;60.30;;;;;;5040326;28;884;-68
2023/03/05 12:58:51;;;;;;;;;;;17.30;60.40;;;;;;5046055;28;808;-68
2023/03/05 13:01:20;;;;;;;;;;;17.30;60.30;;;;;;5065578;28;1339;-68
2023/03/05 13:03:47;;;;;;;;;;;17.30;60.30;;;;;;5047819;28;852;-68
2023/03/05 13:06:23;;;;;;;;;;;17.30;60.30;;;;;;5072541;28;867;-68
2023/03/05 13:08:54;;;;;;;;;;;17.30;60.30;;;;;;5066944;28;1911;-68
2023/03/05 13:11:19;;;;;;;;;;;17.30;60.30;;;;;;5070730;28;1910;-68
2023/03/05 13:13:45;;;;;;;;;;;17.30;60.30;;;;;;5086859;28;1852;-69
2023/03/05 13:16:17;;;;;;;;;;;17.30;60.30;;;;;;5081975;28;1006;-69
2023/03/05 13:18:44;;;;;;;;;;;17.30;60.20;;;;;;5056709;28;1164;-69
2023/03/05 13:21:13;;;;;;;;;;;17.30;60.20;;;;;;5045291;28;1342;-69
2023/03/05 13:23:44;;;;;;;;;;;17.30;60.20;;;;;;5059336;28;1241;-69
2023/03/05 13:26:11;;;;;;;;;;;17.30;60.20;;;;;;5040832;28;983;-69
2023/03/05 13:28:38;;;;;;;;;;;17.30;60.20;;;;;;5036332;28;879;-69
2023/03/05 13:31:11;;;;;;;;;;;17.30;60.10;;;;;;5036639;28;1890;-69
2023/03/05 13:33:36;;;;;;;;;;;17.30;60.10;;;;;;5043378;28;1398;-68
2023/03/05 13:36:02;;;;;;;;;;;17.30;60.10;;;;;;5039535;28;1352;-68
2023/03/05 13:38:28;;;;;;;;;;;17.30;60.10;;;;;;5070566;28;1327;-67
2023/03/05 13:41:00;;;;;;;;;;;17.30;60.10;;;;;;5039573;28;1401;-67
2023/03/05 13:43:26;;;;;;;;;;;17.30;60.10;;;;;;5029661;28;1443;-67
2023/03/05 13:45:52;;;;;;;;;;;17.30;60.10;;;;;;5040423;28;1162;-67
2023/03/05 13:48:17;;;;;;;;;;;17.30;60.10;;;;;;5068317;28;1076;-67
2023/03/05 13:50:43;;;;;;;;;;;17.30;60.10;;;;;;5069329;28;1964;-67
2023/03/05 13:53:16;;;;;;;;;;;17.30;60.10;;;;;;5039092;28;1331;-69
2023/03/05 13:55:41;;;;;;;;;;;17.40;60.10;;;;;;5068979;28;1285;-68
2023/03/05 13:58:27;;;;;;;;;;;17.40;60.10;;;;;;5042582;28;1364;-68
2023/03/05 14:01:01;;;;;;;;;;;17.40;60.10;;;;;;5042899;28;1641;-68
2023/03/05 14:03:26;;;;;;;;;;;17.40;60.10;;;;;;5042325;28;1531;-69
2023/03/05 14:05:52;;;;;;;;;;;17.40;60.10;;;;;;5037934;28;1875;-69
2023/03/05 14:08:19;;;;;;;;;;;17.40;60.00;;;;;;5038437;28;1235;-67
2023/03/05 14:10:44;;;;;;;;;;;17.40;60.10;;;;;;5071302;28;1979;-68
2023/03/05 14:13:16;;;;;;;;;;;17.40;60.00;;;;;;5066934;28;1937;-67
2023/03/05 14:16:00;;;;;;;;;;;17.40;60.10;;;;;;5070313;28;1588;-68
2023/03/05 14:18:26;;;;;;;;;;;17.30;60.00;;;;;;5071110;28;1223;-70
2023/03/05 14:20:59;;;;;;;;;;;17.50;60.10;;;;;;5042551;28;1328;-70
2023/03/05 14:23:24;;;;;;;;;;;17.80;59.50;;;;;;5043059;28;1414;-72
2023/03/05 14:25:49;;;;;;;;;;;18.20;58.60;;;;;;5045084;28;1567;-71
2023/03/05 14:28:15;;;;;;;;;;;18.60;57.90;;;;;;5046877;28;1496;-68
2023/03/05 14:30:43;;;;;;;;;;;18.80;57.40;;;;;;5042296;28;1961;-68
2023/03/05 14:33:09;;;;;;;;;;;18.90;57.10;;;;;;5045058;28;1716;-69
2023/03/05 14:35:34;;;;;;;;;;;19.00;57.10;;;;;;5041624;28;860;-69
2023/03/05 14:38:00;;;;;;;;;;;19.10;57.10;;;;;;5073467;28;1500;-70